sensor_id;sensor_type;location;lat;lon;timestamp;temperature;humidity
11650;DHT22;5881;48.522;7.682;2022-10-16T00:01:22;16.10;99.90
11650;DHT22;5881;48.522;7.682;2022-10-16T00:03:48;16.10;99.90
11650;DHT22;5881;48.522;7.682;2022-10-16T00:06:16;16.10;99.90
11650;DHT22;5881;48.522;7.682;2022-10-16T00:08:42;16.10;99.90
11650;DHT22;5881;48.522;7.682;2022-10-16T00:13:37;16.10;99.90
11650;DHT22;5881;48.522;7.682;2022-10-16T00:16:03;16.10;99.90
11650;DHT22;5881;48.522;7.682;2022-10-16T00:18:30;16.10;99.90
11650;DHT22;5881;48.522;7.682;2022-10-16T00:21:00;16.10;99.90
11650;DHT22;5881;48.522;7.682;2022-10-16T00:23:26;16.20;99.90
11650;DHT22;5881;48.522;7.682;2022-10-16T00:26:00;16.20;99.90
11650;DHT22;5881;48.522;7.682;2022-10-16T00:28:27;16.20;99.90
11650;DHT22;5881;48.522;7.682;2022-10-16T00:30:53;16.20;99.90
11650;DHT22;5881;48.522;7.682;2022-10-16T00:33:19;16.20;99.90
11650;DHT22;5881;48.522;7.682;2022-10-16T00:35:45;16.20;99.90
11650;DHT22;5881;48.522;7.682;2022-10-16T00:38:11;16.20;99.90
11650;DHT22;5881;48.522;7.682;2022-10-16T00:40:36;16.30;99.90
11650;DHT22;5881;48.522;7.682;2022-10-16T00:43:02;16.30;99.90
11650;DHT22;5881;48.522;7.682;2022-10-16T00:45:28;16.20;99.90
11650;DHT22;5881;48.522;7.682;2022-10-16T00:47:55;16.30;99.90
11650;DHT22;5881;48.522;7.682;2022-10-16T00:50:31;16.30;99.90
11650;DHT22;5881;48.522;7.682;2022-10-16T00:52:58;16.30;99.90
11650;DHT22;5881;48.522;7.682;2022-10-16T00:55:26;16.30;99.90
11650;DHT22;5881;48.522;7.682;2022-10-16T00:57:53;16.30;99.90
11650;DHT22;5881;48.522;7.682;2022-10-16T01:00:25;16.30;99.90
11650;DHT22;5881;48.522;7.682;2022-10-16T01:02:56;16.30;99.90
11650;DHT22;5881;48.522;7.682;2022-10-16T01:05:23;16.20;99.90
11650;DHT22;5881;48.522;7.682;2022-10-16T01:08:08;16.30;99.90
11650;DHT22;5881;48.522;7.682;2022-10-16T01:10:39;16.30;99.90
11650;DHT22;5881;48.522;7.682;2022-10-16T01:13:31;16.30;99.90
11650;DHT22;5881;48.522;7.682;2022-10-16T01:16:15;16.20;99.90
11650;DHT22;5881;48.522;7.682;2022-10-16T01:18:46;16.20;99.90
11650;DHT22;5881;48.522;7.682;2022-10-16T01:21:27;16.10;99.90
11650;DHT22;5881;48.522;7.682;2022-10-16T01:24:12;16.10;99.90
11650;DHT22;5881;48.522;7.682;2022-10-16T01:32:36;16.00;99.90
11650;DHT22;5881;48.522;7.682;2022-10-16T01:35:27;16.00;99.90
11650;DHT22;5881;48.522;7.682;2022-10-16T01:38:10;16.00;99.90
11650;DHT22;5881;48.522;7.682;2022-10-16T01:40:40;16.00;99.90
11650;DHT22;5881;48.522;7.682;2022-10-16T01:43:10;16.00;99.90
11650;DHT22;5881;48.522;7.682;2022-10-16T01:45:38;16.00;99.90
11650;DHT22;5881;48.522;7.682;2022-10-16T01:48:05;16.00;99.90
11650;DHT22;5881;48.522;7.682;2022-10-16T01:50:35;16.00;99.90
11650;DHT22;5881;48.522;7.682;2022-10-16T01:53:03;16.00;99.90
11650;DHT22;5881;48.522;7.682;2022-10-16T01:55:33;16.00;99.90
11650;DHT22;5881;48.522;7.682;2022-10-16T01:58:02;16.00;99.90
11650;DHT22;5881;48.522;7.682;2022-10-16T02:00:29;15.90;99.90
11650;DHT22;5881;48.522;7.682;2022-10-16T02:02:57;15.90;99.90
11650;DHT22;5881;48.522;7.682;2022-10-16T02:05:30;15.90;99.90
11650;DHT22;5881;48.522;7.682;2022-10-16T02:07:57;15.90;99.90
11650;DHT22;5881;48.522;7.682;2022-10-16T02:10:24;15.90;99.90
11650;DHT22;5881;48.522;7.682;2022-10-16T02:12:56;15.90;99.90
11650;DHT22;5881;48.522;7.682;2022-10-16T02:15:22;15.80;99.90
11650;DHT22;5881;48.522;7.682;2022-10-16T02:17:48;15.80;99.90
11650;DHT22;5881;48.522;7.682;2022-10-16T02:20:14;15.80;99.90
11650;DHT22;5881;48.522;7.682;2022-10-16T02:22:43;15.90;99.90
11650;DHT22;5881;48.522;7.682;2022-10-16T02:25:26;15.90;99.90
11650;DHT22;5881;48.522;7.682;2022-10-16T02:28:06;15.80;99.90
11650;DHT22;5881;48.522;7.682;2022-10-16T02:32:59;15.80;99.90
11650;DHT22;5881;48.522;7.682;2022-10-16T02:35:26;15.80;99.90
11650;DHT22;5881;48.522;7.682;2022-10-16T02:37:53;15.70;99.90
11650;DHT22;5881;48.522;7.682;2022-10-16T02:40:20;15.70;99.90
11650;DHT22;5881;48.522;7.682;2022-10-16T02:42:50;15.70;99.90
11650;DHT22;5881;48.522;7.682;2022-10-16T02:45:17;15.70;99.90
11650;DHT22;5881;48.522;7.682;2022-10-16T02:47:43;15.70;99.90
11650;DHT22;5881;48.522;7.682;2022-10-16T02:50:08;15.60;99.90
11650;DHT22;5881;48.522;7.682;2022-10-16T02:52:34;15.60;99.90
11650;DHT22;5881;48.522;7.682;2022-10-16T02:55:00;15.60;99.90
11650;DHT22;5881;48.522;7.682;2022-10-16T02:57:26;15.60;99.90
11650;DHT22;5881;48.522;7.682;2022-10-16T02:59:51;15.60;99.90
11650;DHT22;5881;48.522;7.682;2022-10-16T03:02:17;15.60;99.90
11650;DHT22;5881;48.522;7.682;2022-10-16T03:04:43;15.60;99.90
11650;DHT22;5881;48.522;7.682;2022-10-16T03:07:09;15.60;99.90
11650;DHT22;5881;48.522;7.682;2022-10-16T03:09:34;15.60;99.90
11650;DHT22;5881;48.522;7.682;2022-10-16T03:12:00;15.60;99.90
11650;DHT22;5881;48.522;7.682;2022-10-16T03:14:25;15.60;99.90
11650;DHT22;5881;48.522;7.682;2022-10-16T03:16:51;15.60;99.90
11650;DHT22;5881;48.522;7.682;2022-10-16T03:19:17;15.60;99.90
11650;DHT22;5881;48.522;7.682;2022-10-16T03:21:43;15.60;99.90
11650;DHT22;5881;48.522;7.682;2022-10-16T03:24:09;15.50;99.90
11650;DHT22;5881;48.522;7.682;2022-10-16T03:26:34;15.60;99.90
11650;DHT22;5881;48.522;7.682;2022-10-16T03:29:00;15.50;99.90
11650;DHT22;5881;48.522;7.682;2022-10-16T03:31:27;15.60;99.90
11650;DHT22;5881;48.522;7.682;2022-10-16T03:33:53;15.60;99.90
11650;DHT22;5881;48.522;7.682;2022-10-16T03:36:19;15.60;99.90
11650;DHT22;5881;48.522;7.682;2022-10-16T03:38:44;15.60;99.90
11650;DHT22;5881;48.522;7.682;2022-10-16T03:41:10;15.60;99.90
11650;DHT22;5881;48.522;7.682;2022-10-16T03:43:35;15.60;99.90
11650;DHT22;5881;48.522;7.682;2022-10-16T03:46:01;15.50;99.90
11650;DHT22;5881;48.522;7.682;2022-10-16T03:48:27;15.50;99.90
11650;DHT22;5881;48.522;7.682;2022-10-16T03:50:52;15.40;99.90
11650;DHT22;5881;48.522;7.682;2022-10-16T03:53:18;15.40;99.90
11650;DHT22;5881;48.522;7.682;2022-10-16T03:55:44;15.40;99.90
11650;DHT22;5881;48.522;7.682;2022-10-16T03:58:11;15.30;99.90
11650;DHT22;5881;48.522;7.682;2022-10-16T04:00:43;15.20;99.90
11650;DHT22;5881;48.522;7.682;2022-10-16T04:03:10;15.20;99.90
11650;DHT22;5881;48.522;7.682;2022-10-16T04:05:35;15.00;99.90
11650;DHT22;5881;48.522;7.682;2022-10-16T04:08:01;15.00;99.90
11650;DHT22;5881;48.522;7.682;2022-10-16T04:10:27;15.00;99.90
11650;DHT22;5881;48.522;7.682;2022-10-16T04:12:52;14.90;99.90
11650;DHT22;5881;48.522;7.682;2022-10-16T04:15:22;14.90;99.90
11650;DHT22;5881;48.522;7.682;2022-10-16T04:17:48;15.00;99.90
11650;DHT22;5881;48.522;7.682;2022-10-16T04:20:14;15.00;99.90
11650;DHT22;5881;48.522;7.682;2022-10-16T04:22:39;14.90;99.90
11650;DHT22;5881;48.522;7.682;2022-10-16T04:25:05;14.90;99.90
11650;DHT22;5881;48.522;7.682;2022-10-16T04:27:32;14.90;99.90
11650;DHT22;5881;48.522;7.682;2022-10-16T04:29:59;14.80;99.90
11650;DHT22;5881;48.522;7.682;2022-10-16T04:32:25;14.80;99.90
11650;DHT22;5881;48.522;7.682;2022-10-16T04:34:50;14.70;99.90
11650;DHT22;5881;48.522;7.682;2022-10-16T04:37:16;14.70;99.90
11650;DHT22;5881;48.522;7.682;2022-10-16T04:39:41;14.60;99.90
11650;DHT22;5881;48.522;7.682;2022-10-16T04:42:07;14.60;99.90
11650;DHT22;5881;48.522;7.682;2022-10-16T04:44:33;14.50;99.90
11650;DHT22;5881;48.522;7.682;2022-10-16T04:46:58;14.50;99.90
11650;DHT22;5881;48.522;7.682;2022-10-16T04:49:24;14.50;99.90
11650;DHT22;5881;48.522;7.682;2022-10-16T04:51:50;14.50;99.90
11650;DHT22;5881;48.522;7.682;2022-10-16T04:54:15;14.40;99.90
11650;DHT22;5881;48.522;7.682;2022-10-16T04:56:41;14.50;99.90
11650;DHT22;5881;48.522;7.682;2022-10-16T04:59:14;14.40;99.90
11650;DHT22;5881;48.522;7.682;2022-10-16T05:01:40;14.50;99.90
11650;DHT22;5881;48.522;7.682;2022-10-16T05:04:06;14.50;99.90
11650;DHT22;5881;48.522;7.682;2022-10-16T05:06:31;14.50;99.90
11650;DHT22;5881;48.522;7.682;2022-10-16T05:08:57;14.60;99.90
11650;DHT22;5881;48.522;7.682;2022-10-16T05:11:23;14.60;99.90
11650;DHT22;5881;48.522;7.682;2022-10-16T05:13:48;14.60;99.90
11650;DHT22;5881;48.522;7.682;2022-10-16T05:16:14;14.60;99.90
11650;DHT22;5881;48.522;7.682;2022-10-16T05:18:39;14.50;99.90
11650;DHT22;5881;48.522;7.682;2022-10-16T05:21:05;14.50;99.90
11650;DHT22;5881;48.522;7.682;2022-10-16T05:23:31;14.50;99.90
11650;DHT22;5881;48.522;7.682;2022-10-16T05:25:58;14.50;99.90
11650;DHT22;5881;48.522;7.682;2022-10-16T05:28:28;14.60;99.90
11650;DHT22;5881;48.522;7.682;2022-10-16T05:30:56;14.60;99.90
11650;DHT22;5881;48.522;7.682;2022-10-16T05:33:23;14.60;99.90
11650;DHT22;5881;48.522;7.682;2022-10-16T05:35:49;14.60;99.90
11650;DHT22;5881;48.522;7.682;2022-10-16T05:38:16;14.60;99.90
11650;DHT22;5881;48.522;7.682;2022-10-16T05:40:42;14.60;99.90
11650;DHT22;5881;48.522;7.682;2022-10-16T05:43:07;14.60;99.90
11650;DHT22;5881;48.522;7.682;2022-10-16T05:45:33;14.60;99.90
11650;DHT22;5881;48.522;7.682;2022-10-16T05:47:59;14.60;99.90
11650;DHT22;5881;48.522;7.682;2022-10-16T05:50:26;14.60;99.90
11650;DHT22;5881;48.522;7.682;2022-10-16T05:52:51;14.50;99.90
11650;DHT22;5881;48.522;7.682;2022-10-16T05:55:17;14.60;99.90
11650;DHT22;5881;48.522;7.682;2022-10-16T05:57:43;14.60;99.90
11650;DHT22;5881;48.522;7.682;2022-10-16T06:00:09;14.60;99.90
11650;DHT22;5881;48.522;7.682;2022-10-16T06:02:35;14.60;99.90
11650;DHT22;5881;48.522;7.682;2022-10-16T06:05:01;14.70;99.90
11650;DHT22;5881;48.522;7.682;2022-10-16T06:07:26;14.70;99.90
11650;DHT22;5881;48.522;7.682;2022-10-16T06:09:53;14.70;99.90
11650;DHT22;5881;48.522;7.682;2022-10-16T06:12:19;14.70;99.90
11650;DHT22;5881;48.522;7.682;2022-10-16T06:14:46;14.70;99.90
11650;DHT22;5881;48.522;7.682;2022-10-16T06:17:15;14.70;99.90
11650;DHT22;5881;48.522;7.682;2022-10-16T06:19:41;14.80;99.90
11650;DHT22;5881;48.522;7.682;2022-10-16T06:22:07;14.70;99.90
11650;DHT22;5881;48.522;7.682;2022-10-16T06:24:32;14.80;99.90
11650;DHT22;5881;48.522;7.682;2022-10-16T06:26:58;14.80;99.90
11650;DHT22;5881;48.522;7.682;2022-10-16T06:29:24;14.80;99.90
11650;DHT22;5881;48.522;7.682;2022-10-16T06:31:49;14.80;99.90
11650;DHT22;5881;48.522;7.682;2022-10-16T06:34:15;14.80;99.90
11650;DHT22;5881;48.522;7.682;2022-10-16T06:36:41;14.80;99.90
11650;DHT22;5881;48.522;7.682;2022-10-16T06:39:08;14.80;99.90
11650;DHT22;5881;48.522;7.682;2022-10-16T06:41:34;14.80;99.90
11650;DHT22;5881;48.522;7.682;2022-10-16T06:44:00;14.90;99.90
11650;DHT22;5881;48.522;7.682;2022-10-16T06:46:27;14.90;99.90
11650;DHT22;5881;48.522;7.682;2022-10-16T06:48:53;15.00;99.90
11650;DHT22;5881;48.522;7.682;2022-10-16T06:51:23;15.10;99.90
11650;DHT22;5881;48.522;7.682;2022-10-16T06:53:53;15.20;99.90
11650;DHT22;5881;48.522;7.682;2022-10-16T06:56:25;15.20;99.90
11650;DHT22;5881;48.522;7.682;2022-10-16T06:58:51;15.30;99.90
11650;DHT22;5881;48.522;7.682;2022-10-16T07:01:21;15.30;99.90
11650;DHT22;5881;48.522;7.682;2022-10-16T07:03:47;15.40;99.90
11650;DHT22;5881;48.522;7.682;2022-10-16T07:06:17;15.40;99.90
11650;DHT22;5881;48.522;7.682;2022-10-16T07:08:45;15.40;99.90
11650;DHT22;5881;48.522;7.682;2022-10-16T07:11:13;15.40;99.90
11650;DHT22;5881;48.522;7.682;2022-10-16T07:13:40;15.40;99.90
11650;DHT22;5881;48.522;7.682;2022-10-16T07:16:07;15.40;99.90
11650;DHT22;5881;48.522;7.682;2022-10-16T07:18:33;15.50;99.90
11650;DHT22;5881;48.522;7.682;2022-10-16T07:21:14;15.50;99.90
11650;DHT22;5881;48.522;7.682;2022-10-16T07:23:41;15.60;99.90
11650;DHT22;5881;48.522;7.682;2022-10-16T07:26:07;15.60;99.90
11650;DHT22;5881;48.522;7.682;2022-10-16T07:28:33;15.70;99.90
11650;DHT22;5881;48.522;7.682;2022-10-16T07:31:07;15.80;99.90
11650;DHT22;5881;48.522;7.682;2022-10-16T07:33:34;15.80;99.90
11650;DHT22;5881;48.522;7.682;2022-10-16T07:35:59;15.90;99.90
11650;DHT22;5881;48.522;7.682;2022-10-16T07:38:25;15.90;99.90
11650;DHT22;5881;48.522;7.682;2022-10-16T07:41:14;15.90;99.90
11650;DHT22;5881;48.522;7.682;2022-10-16T07:43:44;16.00;99.90
11650;DHT22;5881;48.522;7.682;2022-10-16T07:46:10;16.20;99.90
11650;DHT22;5881;48.522;7.682;2022-10-16T07:48:36;16.30;99.90
11650;DHT22;5881;48.522;7.682;2022-10-16T07:51:04;16.50;99.90
11650;DHT22;5881;48.522;7.682;2022-10-16T07:53:30;16.60;99.90
11650;DHT22;5881;48.522;7.682;2022-10-16T07:55:58;16.60;99.90
11650;DHT22;5881;48.522;7.682;2022-10-16T07:58:24;16.50;99.90
11650;DHT22;5881;48.522;7.682;2022-10-16T08:00:50;16.40;99.90
11650;DHT22;5881;48.522;7.682;2022-10-16T08:03:15;16.40;99.90
11650;DHT22;5881;48.522;7.682;2022-10-16T08:05:41;16.40;99.90
11650;DHT22;5881;48.522;7.682;2022-10-16T08:08:10;16.50;99.90
11650;DHT22;5881;48.522;7.682;2022-10-16T08:10:36;16.50;99.90
11650;DHT22;5881;48.522;7.682;2022-10-16T08:13:02;16.60;99.90
11650;DHT22;5881;48.522;7.682;2022-10-16T08:15:27;16.60;99.90
11650;DHT22;5881;48.522;7.682;2022-10-16T08:17:58;16.70;99.90
11650;DHT22;5881;48.522;7.682;2022-10-16T08:20:25;16.90;99.90
11650;DHT22;5881;48.522;7.682;2022-10-16T08:22:50;17.00;22.60
11650;DHT22;5881;48.522;7.682;2022-10-16T08:25:16;17.00;1.00
11650;DHT22;5881;48.522;7.682;2022-10-16T08:27:42;17.00;1.00
11650;DHT22;5881;48.522;7.682;2022-10-16T08:30:08;17.00;1.00
11650;DHT22;5881;48.522;7.682;2022-10-16T08:32:34;17.10;1.00
11650;DHT22;5881;48.522;7.682;2022-10-16T08:34:59;17.10;1.00
11650;DHT22;5881;48.522;7.682;2022-10-16T08:37:29;17.10;1.00
11650;DHT22;5881;48.522;7.682;2022-10-16T08:39:54;17.20;1.00
11650;DHT22;5881;48.522;7.682;2022-10-16T08:48:30;17.50;99.90
11650;DHT22;5881;48.522;7.682;2022-10-16T08:50:50;17.50;70.80
11650;DHT22;5881;48.522;7.682;2022-10-16T08:53:44;17.80;40.40
11650;DHT22;5881;48.522;7.682;2022-10-16T08:56:11;17.70;1.00
11650;DHT22;5881;48.522;7.682;2022-10-16T08:58:37;18.10;1.00
11650;DHT22;5881;48.522;7.682;2022-10-16T09:01:13;18.40;1.00
11650;DHT22;5881;48.522;7.682;2022-10-16T09:06:52;19.10;1.00
11650;DHT22;5881;48.522;7.682;2022-10-16T09:09:56;19.10;1.00
11650;DHT22;5881;48.522;7.682;2022-10-16T09:12:26;18.90;1.00
11650;DHT22;5881;48.522;7.682;2022-10-16T09:17:30;18.60;99.90
11650;DHT22;5881;48.522;7.682;2022-10-16T09:22:35;18.60;1.00
11650;DHT22;5881;48.522;7.682;2022-10-16T09:25:14;18.50;1.00
11650;DHT22;5881;48.522;7.682;2022-10-16T09:27:40;18.70;1.00
11650;DHT22;5881;48.522;7.682;2022-10-16T09:30:19;18.80;99.90
11650;DHT22;5881;48.522;7.682;2022-10-16T09:32:48;18.80;99.90
11650;DHT22;5881;48.522;7.682;2022-10-16T09:35:17;18.90;1.00
11650;DHT22;5881;48.522;7.682;2022-10-16T09:37:47;19.00;99.90
11650;DHT22;5881;48.522;7.682;2022-10-16T09:40:25;19.10;99.90
11650;DHT22;5881;48.522;7.682;2022-10-16T09:42:56;19.20;99.90
11650;DHT22;5881;48.522;7.682;2022-10-16T09:45:24;19.20;99.90
11650;DHT22;5881;48.522;7.682;2022-10-16T09:47:50;19.70;99.90
11650;DHT22;5881;48.522;7.682;2022-10-16T09:50:23;19.70;99.90
11650;DHT22;5881;48.522;7.682;2022-10-16T09:52:50;19.70;99.90
11650;DHT22;5881;48.522;7.682;2022-10-16T09:55:21;19.70;99.90
11650;DHT22;5881;48.522;7.682;2022-10-16T09:57:54;19.70;99.90
11650;DHT22;5881;48.522;7.682;2022-10-16T10:00:21;20.00;99.90
11650;DHT22;5881;48.522;7.682;2022-10-16T10:02:47;20.60;99.90
11650;DHT22;5881;48.522;7.682;2022-10-16T10:05:25;20.40;99.90
11650;DHT22;5881;48.522;7.682;2022-10-16T10:08:02;20.30;99.90
11650;DHT22;5881;48.522;7.682;2022-10-16T10:10:34;19.90;99.90
11650;DHT22;5881;48.522;7.682;2022-10-16T10:13:02;19.90;99.90
11650;DHT22;5881;48.522;7.682;2022-10-16T10:15:33;19.90;99.90
11650;DHT22;5881;48.522;7.682;2022-10-16T10:18:00;20.30;99.90
11650;DHT22;5881;48.522;7.682;2022-10-16T10:22:54;20.50;99.90
11650;DHT22;5881;48.522;7.682;2022-10-16T10:28:21;20.40;99.90
11650;DHT22;5881;48.522;7.682;2022-10-16T10:36:02;20.60;99.90
11650;DHT22;5881;48.522;7.682;2022-10-16T10:46:41;20.30;99.90
11650;DHT22;5881;48.522;7.682;2022-10-16T10:49:13;20.00;99.90
11650;DHT22;5881;48.522;7.682;2022-10-16T10:52:05;20.00;99.90
11650;DHT22;5881;48.522;7.682;2022-10-16T10:57:28;19.80;99.90
11650;DHT22;5881;48.522;7.682;2022-10-16T11:03:00;19.80;99.90
11650;DHT22;5881;48.522;7.682;2022-10-16T11:10:45;19.90;99.90
11650;DHT22;5881;48.522;7.682;2022-10-16T11:16:03;20.40;99.90
11650;DHT22;5881;48.522;7.682;2022-10-16T11:21:13;20.60;99.90
11650;DHT22;5881;48.522;7.682;2022-10-16T11:26:17;20.20;99.90
11650;DHT22;5881;48.522;7.682;2022-10-16T11:28:53;20.60;99.90
11650;DHT22;5881;48.522;7.682;2022-10-16T11:31:34;20.70;99.90
11650;DHT22;5881;48.522;7.682;2022-10-16T11:34:06;20.80;99.90
11650;DHT22;5881;48.522;7.682;2022-10-16T11:36:50;21.00;99.90
11650;DHT22;5881;48.522;7.682;2022-10-16T11:39:28;21.20;99.90
11650;DHT22;5881;48.522;7.682;2022-10-16T11:42:10;21.00;99.90
11650;DHT22;5881;48.522;7.682;2022-10-16T11:47:44;21.10;99.90
11650;DHT22;5881;48.522;7.682;2022-10-16T11:50:24;21.00;99.90
11650;DHT22;5881;48.522;7.682;2022-10-16T11:55:44;21.30;99.90
11650;DHT22;5881;48.522;7.682;2022-10-16T11:58:27;21.30;99.90
11650;DHT22;5881;48.522;7.682;2022-10-16T12:04:02;21.50;99.90
11650;DHT22;5881;48.522;7.682;2022-10-16T12:11:46;21.50;99.90
11650;DHT22;5881;48.522;7.682;2022-10-16T12:16:59;21.60;99.90
11650;DHT22;5881;48.522;7.682;2022-10-16T12:19:27;21.70;99.90
11650;DHT22;5881;48.522;7.682;2022-10-16T12:21:58;21.70;99.90
11650;DHT22;5881;48.522;7.682;2022-10-16T12:24:39;21.80;99.90
11650;DHT22;5881;48.522;7.682;2022-10-16T12:27:31;21.70;99.90
11650;DHT22;5881;48.522;7.682;2022-10-16T12:30:02;21.80;99.90
11650;DHT22;5881;48.522;7.682;2022-10-16T12:32:34;21.70;99.90
11650;DHT22;5881;48.522;7.682;2022-10-16T12:35:02;21.70;99.90
11650;DHT22;5881;48.522;7.682;2022-10-16T12:37:34;21.80;99.90
11650;DHT22;5881;48.522;7.682;2022-10-16T12:40:13;22.00;99.90
11650;DHT22;5881;48.522;7.682;2022-10-16T12:42:45;22.10;99.90
11650;DHT22;5881;48.522;7.682;2022-10-16T12:45:31;22.10;99.90
11650;DHT22;5881;48.522;7.682;2022-10-16T12:47:59;22.10;99.90
11650;DHT22;5881;48.522;7.682;2022-10-16T12:50:31;22.00;99.90
11650;DHT22;5881;48.522;7.682;2022-10-16T12:52:58;22.30;99.90
11650;DHT22;5881;48.522;7.682;2022-10-16T12:55:24;22.40;99.90
11650;DHT22;5881;48.522;7.682;2022-10-16T13:00:57;22.30;99.90
11650;DHT22;5881;48.522;7.682;2022-10-16T13:15:22;22.90;99.90
11650;DHT22;5881;48.522;7.682;2022-10-16T13:18:07;23.10;98.70
11650;DHT22;5881;48.522;7.682;2022-10-16T13:23:42;22.70;92.80
11650;DHT22;5881;48.522;7.682;2022-10-16T13:28:58;22.60;83.60
11650;DHT22;5881;48.522;7.682;2022-10-16T13:31:25;22.40;79.40
11650;DHT22;5881;48.522;7.682;2022-10-16T13:33:53;22.40;83.40
11650;DHT22;5881;48.522;7.682;2022-10-16T13:36:35;22.50;81.40
11650;DHT22;5881;48.522;7.682;2022-10-16T13:41:39;22.70;83.60
11650;DHT22;5881;48.522;7.682;2022-10-16T13:44:07;22.80;73.60
11650;DHT22;5881;48.522;7.682;2022-10-16T13:46:37;22.90;72.10
11650;DHT22;5881;48.522;7.682;2022-10-16T13:49:15;22.90;68.90
11650;DHT22;5881;48.522;7.682;2022-10-16T13:51:41;22.80;53.60
11650;DHT22;5881;48.522;7.682;2022-10-16T13:54:09;22.80;50.40
11650;DHT22;5881;48.522;7.682;2022-10-16T13:56:38;22.80;49.40
11650;DHT22;5881;48.522;7.682;2022-10-16T13:59:06;22.70;45.70
11650;DHT22;5881;48.522;7.682;2022-10-16T14:01:34;22.70;41.00
11650;DHT22;5881;48.522;7.682;2022-10-16T14:04:04;22.70;40.60
11650;DHT22;5881;48.522;7.682;2022-10-16T14:06:31;22.70;37.80
11650;DHT22;5881;48.522;7.682;2022-10-16T14:09:13;22.60;37.60
11650;DHT22;5881;48.522;7.682;2022-10-16T14:11:49;22.60;33.30
11650;DHT22;5881;48.522;7.682;2022-10-16T14:14:17;22.50;31.60
11650;DHT22;5881;48.522;7.682;2022-10-16T14:16:43;22.50;31.60
11650;DHT22;5881;48.522;7.682;2022-10-16T14:19:20;22.50;33.30
11650;DHT22;5881;48.522;7.682;2022-10-16T14:21:46;22.50;32.20
11650;DHT22;5881;48.522;7.682;2022-10-16T14:24:13;22.50;32.70
11650;DHT22;5881;48.522;7.682;2022-10-16T14:26:43;22.50;31.30
11650;DHT22;5881;48.522;7.682;2022-10-16T14:29:19;22.50;30.00
11650;DHT22;5881;48.522;7.682;2022-10-16T14:32:05;22.50;27.20
11650;DHT22;5881;48.522;7.682;2022-10-16T14:34:36;22.40;26.60
11650;DHT22;5881;48.522;7.682;2022-10-16T14:37:24;22.40;26.60
11650;DHT22;5881;48.522;7.682;2022-10-16T14:39:50;22.40;26.10
11650;DHT22;5881;48.522;7.682;2022-10-16T14:42:18;22.40;26.70
11650;DHT22;5881;48.522;7.682;2022-10-16T14:44:45;22.30;26.00
11650;DHT22;5881;48.522;7.682;2022-10-16T14:47:17;22.20;22.70
11650;DHT22;5881;48.522;7.682;2022-10-16T14:49:49;22.30;23.50
11650;DHT22;5881;48.522;7.682;2022-10-16T14:52:14;22.30;25.30
11650;DHT22;5881;48.522;7.682;2022-10-16T14:54:40;22.30;26.60
11650;DHT22;5881;48.522;7.682;2022-10-16T14:57:19;22.30;26.50
11650;DHT22;5881;48.522;7.682;2022-10-16T14:59:46;22.30;27.80
11650;DHT22;5881;48.522;7.682;2022-10-16T15:02:33;22.30;26.40
11650;DHT22;5881;48.522;7.682;2022-10-16T15:05:21;22.30;26.80
11650;DHT22;5881;48.522;7.682;2022-10-16T15:07:50;22.30;25.60
11650;DHT22;5881;48.522;7.682;2022-10-16T15:10:17;22.30;23.90
11650;DHT22;5881;48.522;7.682;2022-10-16T15:12:43;22.30;24.70
11650;DHT22;5881;48.522;7.682;2022-10-16T15:17:48;22.20;25.20
11650;DHT22;5881;48.522;7.682;2022-10-16T15:20:14;22.20;25.30
11650;DHT22;5881;48.522;7.682;2022-10-16T15:22:39;22.10;26.50
11650;DHT22;5881;48.522;7.682;2022-10-16T15:28:01;22.00;25.70
11650;DHT22;5881;48.522;7.682;2022-10-16T15:30:27;21.90;26.00
11650;DHT22;5881;48.522;7.682;2022-10-16T15:32:52;21.80;25.50
11650;DHT22;5881;48.522;7.682;2022-10-16T15:35:18;21.80;25.80
11650;DHT22;5881;48.522;7.682;2022-10-16T15:37:45;21.70;25.50
11650;DHT22;5881;48.522;7.682;2022-10-16T15:40:11;21.70;25.30
11650;DHT22;5881;48.522;7.682;2022-10-16T15:42:36;21.60;24.80
11650;DHT22;5881;48.522;7.682;2022-10-16T15:45:03;21.50;24.80
11650;DHT22;5881;48.522;7.682;2022-10-16T15:47:29;21.60;26.00
11650;DHT22;5881;48.522;7.682;2022-10-16T15:49:55;21.50;26.00
11650;DHT22;5881;48.522;7.682;2022-10-16T15:52:20;21.40;25.80
11650;DHT22;5881;48.522;7.682;2022-10-16T15:54:46;21.30;26.40
11650;DHT22;5881;48.522;7.682;2022-10-16T15:57:12;21.10;26.20
11650;DHT22;5881;48.522;7.682;2022-10-16T15:59:37;21.00;26.10
11650;DHT22;5881;48.522;7.682;2022-10-16T16:02:03;20.90;27.00
11650;DHT22;5881;48.522;7.682;2022-10-16T16:04:31;20.80;28.90
11650;DHT22;5881;48.522;7.682;2022-10-16T16:06:57;20.60;29.30
11650;DHT22;5881;48.522;7.682;2022-10-16T16:09:23;20.50;30.80
11650;DHT22;5881;48.522;7.682;2022-10-16T16:11:49;20.30;31.80
11650;DHT22;5881;48.522;7.682;2022-10-16T16:14:16;20.20;34.10
11650;DHT22;5881;48.522;7.682;2022-10-16T16:16:42;20.10;38.60
11650;DHT22;5881;48.522;7.682;2022-10-16T16:19:08;20.00;42.70
11650;DHT22;5881;48.522;7.682;2022-10-16T16:21:34;19.90;50.10
11650;DHT22;5881;48.522;7.682;2022-10-16T16:24:00;19.70;61.90
11650;DHT22;5881;48.522;7.682;2022-10-16T16:26:29;19.60;76.80
11650;DHT22;5881;48.522;7.682;2022-10-16T16:29:00;19.50;83.40
11650;DHT22;5881;48.522;7.682;2022-10-16T16:31:27;19.30;97.20
11650;DHT22;5881;48.522;7.682;2022-10-16T16:33:53;19.10;99.90
11650;DHT22;5881;48.522;7.682;2022-10-16T16:36:19;19.00;99.90
11650;DHT22;5881;48.522;7.682;2022-10-16T16:38:45;18.90;99.90
11650;DHT22;5881;48.522;7.682;2022-10-16T16:41:23;18.80;99.90
11650;DHT22;5881;48.522;7.682;2022-10-16T16:43:50;18.60;1.00
11650;DHT22;5881;48.522;7.682;2022-10-16T16:46:19;18.40;1.00
11650;DHT22;5881;48.522;7.682;2022-10-16T16:48:45;18.30;1.00
11650;DHT22;5881;48.522;7.682;2022-10-16T16:51:14;18.30;99.90
11650;DHT22;5881;48.522;7.682;2022-10-16T16:53:46;18.00;99.90
11650;DHT22;5881;48.522;7.682;2022-10-16T16:56:13;17.80;99.90
11650;DHT22;5881;48.522;7.682;2022-10-16T16:58:39;17.70;1.00
11650;DHT22;5881;48.522;7.682;2022-10-16T17:01:05;17.60;1.00
11650;DHT22;5881;48.522;7.682;2022-10-16T17:03:32;17.50;1.00
11650;DHT22;5881;48.522;7.682;2022-10-16T17:06:06;17.50;1.00
11650;DHT22;5881;48.522;7.682;2022-10-16T17:08:34;17.30;99.90
11650;DHT22;5881;48.522;7.682;2022-10-16T17:11:01;17.30;99.90
11650;DHT22;5881;48.522;7.682;2022-10-16T17:13:29;17.20;1.00
11650;DHT22;5881;48.522;7.682;2022-10-16T17:15:55;17.10;99.90
11650;DHT22;5881;48.522;7.682;2022-10-16T17:18:23;17.00;1.00
11650;DHT22;5881;48.522;7.682;2022-10-16T17:20:49;16.90;1.00
11650;DHT22;5881;48.522;7.682;2022-10-16T17:23:17;16.90;99.90
11650;DHT22;5881;48.522;7.682;2022-10-16T17:25:43;16.80;99.90
11650;DHT22;5881;48.522;7.682;2022-10-16T17:28:10;16.80;99.90
11650;DHT22;5881;48.522;7.682;2022-10-16T17:30:37;16.70;99.90
11650;DHT22;5881;48.522;7.682;2022-10-16T17:33:04;16.70;99.90
11650;DHT22;5881;48.522;7.682;2022-10-16T17:35:36;16.60;99.90
11650;DHT22;5881;48.522;7.682;2022-10-16T17:38:03;16.50;99.90
11650;DHT22;5881;48.522;7.682;2022-10-16T17:40:28;16.50;99.90
11650;DHT22;5881;48.522;7.682;2022-10-16T17:42:54;16.50;99.90
11650;DHT22;5881;48.522;7.682;2022-10-16T17:45:20;16.40;99.90
11650;DHT22;5881;48.522;7.682;2022-10-16T17:47:46;16.40;99.90